sensor_id;sensor_type;location;lat;lon;timestamp;P1;durP1;ratioP1;P2;durP2;ratioP2
75272;SDS011;63869;52.344;16.928;2023-04-19T00:02:17;7.30;;;3.78;;
75272;SDS011;63869;52.344;16.928;2023-04-19T00:04:43;9.02;;;3.90;;
75272;SDS011;63869;52.344;16.928;2023-04-19T00:07:09;6.57;;;3.95;;
75272;SDS011;63869;52.344;16.928;2023-04-19T00:09:35;5.95;;;3.75;;
75272;SDS011;63869;52.344;16.928;2023-04-19T00:12:00;6.13;;;3.97;;
75272;SDS011;63869;52.344;16.928;2023-04-19T00:14:27;6.72;;;3.35;;
75272;SDS011;63869;52.344;16.928;2023-04-19T00:16:52;5.90;;;3.30;;
75272;SDS011;63869;52.344;16.928;2023-04-19T00:19:17;4.95;;;2.90;;
75272;SDS011;63869;52.344;16.928;2023-04-19T00:21:43;6.38;;;3.20;;
75272;SDS011;63869;52.344;16.928;2023-04-19T00:24:08;7.30;;;3.17;;
75272;SDS011;63869;52.344;16.928;2023-04-19T00:26:33;5.53;;;3.05;;
75272;SDS011;63869;52.344;16.928;2023-04-19T00:28:59;8.10;;;3.30;;
75272;SDS011;63869;52.344;16.928;2023-04-19T00:31:24;5.78;;;3.03;;
75272;SDS011;63869;52.344;16.928;2023-04-19T00:33:49;7.13;;;3.33;;
75272;SDS011;63869;52.344;16.928;2023-04-19T00:36:15;6.97;;;3.25;;
75272;SDS011;63869;52.344;16.928;2023-04-19T00:38:40;5.53;;;3.10;;
75272;SDS011;63869;52.344;16.928;2023-04-19T00:41:05;6.80;;;3.20;;
75272;SDS011;63869;52.344;16.928;2023-04-19T00:43:31;6.75;;;3.50;;
75272;SDS011;63869;52.344;16.928;2023-04-19T00:45:56;7.05;;;3.17;;
75272;SDS011;63869;52.344;16.928;2023-04-19T00:48:21;4.40;;;3.22;;
75272;SDS011;63869;52.344;16.928;2023-04-19T00:50:48;13.10;;;6.43;;
75272;SDS011;63869;52.344;16.928;2023-04-19T00:53:13;13.90;;;6.38;;
75272;SDS011;63869;52.344;16.928;2023-04-19T00:55:40;6.60;;;3.60;;
75272;SDS011;63869;52.344;16.928;2023-04-19T00:58:06;7.43;;;3.08;;
75272;SDS011;63869;52.344;16.928;2023-04-19T01:00:32;5.05;;;2.90;;
75272;SDS011;63869;52.344;16.928;2023-04-19T01:02:58;5.53;;;3.03;;
75272;SDS011;63869;52.344;16.928;2023-04-19T01:05:23;5.35;;;3.30;;
75272;SDS011;63869;52.344;16.928;2023-04-19T01:07:48;4.93;;;2.80;;
75272;SDS011;63869;52.344;16.928;2023-04-19T01:10:14;6.03;;;2.75;;
75272;SDS011;63869;52.344;16.928;2023-04-19T01:12:39;5.95;;;3.20;;
75272;SDS011;63869;52.344;16.928;2023-04-19T01:15:05;6.75;;;2.90;;
75272;SDS011;63869;52.344;16.928;2023-04-19T01:17:31;6.05;;;3.00;;
75272;SDS011;63869;52.344;16.928;2023-04-19T01:19:57;7.15;;;3.30;;
75272;SDS011;63869;52.344;16.928;2023-04-19T01:22:27;4.32;;;2.70;;
75272;SDS011;63869;52.344;16.928;2023-04-19T01:24:54;7.32;;;2.65;;
75272;SDS011;63869;52.344;16.928;2023-04-19T01:27:19;7.03;;;3.33;;
75272;SDS011;63869;52.344;16.928;2023-04-19T01:29:45;4.57;;;2.60;;
75272;SDS011;63869;52.344;16.928;2023-04-19T01:32:10;6.20;;;2.90;;
75272;SDS011;63869;52.344;16.928;2023-04-19T01:34:39;4.68;;;3.17;;
75272;SDS011;63869;52.344;16.928;2023-04-19T01:37:04;5.50;;;2.83;;
75272;SDS011;63869;52.344;16.928;2023-04-19T01:39:29;6.80;;;2.92;;
75272;SDS011;63869;52.344;16.928;2023-04-19T01:41:55;4.70;;;2.88;;
75272;SDS011;63869;52.344;16.928;2023-04-19T01:44:20;6.53;;;3.17;;
75272;SDS011;63869;52.344;16.928;2023-04-19T01:46:46;6.05;;;2.63;;
75272;SDS011;63869;52.344;16.928;2023-04-19T01:49:11;5.47;;;2.85;;
75272;SDS011;63869;52.344;16.928;2023-04-19T01:51:37;6.28;;;2.72;;
75272;SDS011;63869;52.344;16.928;2023-04-19T01:54:03;6.85;;;2.65;;
75272;SDS011;63869;52.344;16.928;2023-04-19T01:56:29;5.43;;;2.78;;
75272;SDS011;63869;52.344;16.928;2023-04-19T01:58:55;4.97;;;2.75;;
75272;SDS011;63869;52.344;16.928;2023-04-19T02:01:20;4.25;;;2.70;;
75272;SDS011;63869;52.344;16.928;2023-04-19T02:03:46;5.10;;;2.58;;
75272;SDS011;63869;52.344;16.928;2023-04-19T02:06:12;6.10;;;2.90;;
75272;SDS011;63869;52.344;16.928;2023-04-19T02:08:38;5.00;;;2.42;;
75272;SDS011;63869;52.344;16.928;2023-04-19T02:11:10;5.30;;;2.83;;
75272;SDS011;63869;52.344;16.928;2023-04-19T02:13:40;6.03;;;2.85;;
75272;SDS011;63869;52.344;16.928;2023-04-19T02:16:06;7.22;;;2.53;;
75272;SDS011;63869;52.344;16.928;2023-04-19T02:18:31;6.70;;;2.88;;
75272;SDS011;63869;52.344;16.928;2023-04-19T02:20:57;5.88;;;3.05;;
75272;SDS011;63869;52.344;16.928;2023-04-19T02:23:23;4.57;;;2.60;;
75272;SDS011;63869;52.344;16.928;2023-04-19T02:25:50;6.57;;;2.70;;
75272;SDS011;63869;52.344;16.928;2023-04-19T02:28:16;5.50;;;2.80;;
75272;SDS011;63869;52.344;16.928;2023-04-19T02:30:41;3.72;;;2.45;;
75272;SDS011;63869;52.344;16.928;2023-04-19T02:33:08;5.68;;;2.95;;
75272;SDS011;63869;52.344;16.928;2023-04-19T02:35:33;6.93;;;2.83;;
75272;SDS011;63869;52.344;16.928;2023-04-19T02:37:59;6.88;;;2.65;;
75272;SDS011;63869;52.344;16.928;2023-04-19T02:40:26;5.30;;;2.70;;
75272;SDS011;63869;52.344;16.928;2023-04-19T02:42:51;6.25;;;3.35;;
75272;SDS011;63869;52.344;16.928;2023-04-19T02:45:17;10.98;;;3.00;;
75272;SDS011;63869;52.344;16.928;2023-04-19T02:47:42;5.25;;;2.42;;
75272;SDS011;63869;52.344;16.928;2023-04-19T02:50:07;5.45;;;2.80;;
75272;SDS011;63869;52.344;16.928;2023-04-19T02:52:33;7.00;;;2.72;;
75272;SDS011;63869;52.344;16.928;2023-04-19T02:54:58;6.63;;;2.70;;
75272;SDS011;63869;52.344;16.928;2023-04-19T02:57:24;6.50;;;2.60;;
75272;SDS011;63869;52.344;16.928;2023-04-19T02:59:49;6.30;;;2.75;;
75272;SDS011;63869;52.344;16.928;2023-04-19T03:02:14;7.10;;;2.63;;
75272;SDS011;63869;52.344;16.928;2023-04-19T03:04:40;5.15;;;2.38;;
75272;SDS011;63869;52.344;16.928;2023-04-19T03:07:07;5.25;;;2.60;;
75272;SDS011;63869;52.344;16.928;2023-04-19T03:09:33;5.45;;;3.03;;
75272;SDS011;63869;52.344;16.928;2023-04-19T03:11:59;6.38;;;2.88;;
75272;SDS011;63869;52.344;16.928;2023-04-19T03:14:25;6.38;;;2.83;;
75272;SDS011;63869;52.344;16.928;2023-04-19T03:16:50;6.07;;;2.60;;
75272;SDS011;63869;52.344;16.928;2023-04-19T03:19:16;5.90;;;2.75;;
75272;SDS011;63869;52.344;16.928;2023-04-19T03:21:41;4.68;;;3.03;;
75272;SDS011;63869;52.344;16.928;2023-04-19T03:24:06;6.32;;;2.85;;
75272;SDS011;63869;52.344;16.928;2023-04-19T03:26:32;5.20;;;3.00;;
75272;SDS011;63869;52.344;16.928;2023-04-19T03:28:57;5.43;;;3.05;;
75272;SDS011;63869;52.344;16.928;2023-04-19T03:31:22;6.65;;;2.65;;
75272;SDS011;63869;52.344;16.928;2023-04-19T03:33:47;4.93;;;2.70;;
75272;SDS011;63869;52.344;16.928;2023-04-19T03:36:13;7.28;;;2.83;;
75272;SDS011;63869;52.344;16.928;2023-04-19T03:38:38;6.65;;;2.60;;
75272;SDS011;63869;52.344;16.928;2023-04-19T03:41:04;6.45;;;3.20;;
75272;SDS011;63869;52.344;16.928;2023-04-19T03:43:30;6.53;;;2.70;;
75272;SDS011;63869;52.344;16.928;2023-04-19T03:45:55;9.57;;;2.90;;
75272;SDS011;63869;52.344;16.928;2023-04-19T03:48:20;5.43;;;2.90;;
75272;SDS011;63869;52.344;16.928;2023-04-19T03:50:45;4.68;;;2.53;;
75272;SDS011;63869;52.344;16.928;2023-04-19T03:53:12;7.32;;;2.90;;
75272;SDS011;63869;52.344;16.928;2023-04-19T03:55:37;3.97;;;2.45;;
75272;SDS011;63869;52.344;16.928;2023-04-19T03:58:03;5.25;;;2.58;;
75272;SDS011;63869;52.344;16.928;2023-04-19T04:00:28;7.10;;;2.80;;
75272;SDS011;63869;52.344;16.928;2023-04-19T04:02:53;5.90;;;2.60;;
75272;SDS011;63869;52.344;16.928;2023-04-19T04:05:19;6.20;;;2.70;;
75272;SDS011;63869;52.344;16.928;2023-04-19T04:07:44;6.43;;;2.85;;
75272;SDS011;63869;52.344;16.928;2023-04-19T04:10:11;5.32;;;2.78;;
75272;SDS011;63869;52.344;16.928;2023-04-19T04:12:36;5.43;;;3.08;;
75272;SDS011;63869;52.344;16.928;2023-04-19T04:15:02;5.73;;;3.37;;
75272;SDS011;63869;52.344;16.928;2023-04-19T04:17:27;6.85;;;2.72;;
75272;SDS011;63869;52.344;16.928;2023-04-19T04:19:52;6.97;;;3.03;;
75272;SDS011;63869;52.344;16.928;2023-04-19T04:22:18;6.47;;;2.90;;
75272;SDS011;63869;52.344;16.928;2023-04-19T04:24:43;8.88;;;2.90;;
75272;SDS011;63869;52.344;16.928;2023-04-19T04:27:09;4.80;;;2.90;;
75272;SDS011;63869;52.344;16.928;2023-04-19T04:29:38;7.30;;;3.17;;
75272;SDS011;63869;52.344;16.928;2023-04-19T04:32:07;6.90;;;3.15;;
75272;SDS011;63869;52.344;16.928;2023-04-19T04:34:34;6.00;;;2.92;;
75272;SDS011;63869;52.344;16.928;2023-04-19T04:37:00;5.63;;;3.00;;
75272;SDS011;63869;52.344;16.928;2023-04-19T04:39:26;6.80;;;3.10;;
75272;SDS011;63869;52.344;16.928;2023-04-19T04:41:53;6.90;;;3.33;;
75272;SDS011;63869;52.344;16.928;2023-04-19T04:44:18;5.55;;;3.15;;
75272;SDS011;63869;52.344;16.928;2023-04-19T04:46:44;5.57;;;2.90;;
75272;SDS011;63869;52.344;16.928;2023-04-19T04:49:10;8.48;;;2.95;;
75272;SDS011;63869;52.344;16.928;2023-04-19T04:51:36;5.30;;;3.10;;
75272;SDS011;63869;52.344;16.928;2023-04-19T04:54:02;10.73;;;2.75;;
75272;SDS011;63869;52.344;16.928;2023-04-19T04:56:29;4.72;;;2.60;;
75272;SDS011;63869;52.344;16.928;2023-04-19T04:58:54;5.63;;;3.00;;
75272;SDS011;63869;52.344;16.928;2023-04-19T05:01:21;6.85;;;3.15;;
75272;SDS011;63869;52.344;16.928;2023-04-19T05:03:47;8.23;;;2.92;;
75272;SDS011;63869;52.344;16.928;2023-04-19T05:06:13;7.03;;;3.30;;
75272;SDS011;63869;52.344;16.928;2023-04-19T05:08:38;6.30;;;3.30;;
75272;SDS011;63869;52.344;16.928;2023-04-19T05:11:03;7.65;;;3.50;;
75272;SDS011;63869;52.344;16.928;2023-04-19T05:13:29;9.15;;;3.20;;
75272;SDS011;63869;52.344;16.928;2023-04-19T05:15:54;9.45;;;4.00;;
75272;SDS011;63869;52.344;16.928;2023-04-19T05:18:19;7.47;;;3.80;;
75272;SDS011;63869;52.344;16.928;2023-04-19T05:20:45;8.10;;;3.65;;
75272;SDS011;63869;52.344;16.928;2023-04-19T05:23:10;10.32;;;3.80;;
75272;SDS011;63869;52.344;16.928;2023-04-19T05:25:36;8.95;;;4.13;;
75272;SDS011;63869;52.344;16.928;2023-04-19T05:28:02;7.97;;;3.70;;
75272;SDS011;63869;52.344;16.928;2023-04-19T05:30:29;8.93;;;3.42;;
75272;SDS011;63869;52.344;16.928;2023-04-19T05:32:54;9.35;;;4.20;;
75272;SDS011;63869;52.344;16.928;2023-04-19T05:35:20;7.53;;;3.72;;
75272;SDS011;63869;52.344;16.928;2023-04-19T05:37:45;10.77;;;4.22;;
75272;SDS011;63869;52.344;16.928;2023-04-19T05:40:11;8.05;;;3.65;;
75272;SDS011;63869;52.344;16.928;2023-04-19T05:42:37;8.95;;;4.20;;
75272;SDS011;63869;52.344;16.928;2023-04-19T05:45:03;9.65;;;4.35;;
75272;SDS011;63869;52.344;16.928;2023-04-19T05:47:29;8.50;;;4.35;;
75272;SDS011;63869;52.344;16.928;2023-04-19T05:49:56;10.82;;;4.40;;
75272;SDS011;63869;52.344;16.928;2023-04-19T05:52:21;10.75;;;4.45;;
75272;SDS011;63869;52.344;16.928;2023-04-19T05:54:47;11.77;;;4.70;;
75272;SDS011;63869;52.344;16.928;2023-04-19T05:57:12;10.02;;;4.60;;
75272;SDS011;63869;52.344;16.928;2023-04-19T05:59:37;9.85;;;4.38;;
75272;SDS011;63869;52.344;16.928;2023-04-19T06:02:03;8.23;;;4.40;;
75272;SDS011;63869;52.344;16.928;2023-04-19T06:04:28;12.20;;;4.60;;
75272;SDS011;63869;52.344;16.928;2023-04-19T06:06:54;14.07;;;4.35;;
75272;SDS011;63869;52.344;16.928;2023-04-19T06:09:19;17.35;;;5.32;;
75272;SDS011;63869;52.344;16.928;2023-04-19T06:11:45;10.38;;;4.20;;
75272;SDS011;63869;52.344;16.928;2023-04-19T06:14:11;8.10;;;4.32;;
75272;SDS011;63869;52.344;16.928;2023-04-19T06:16:39;11.02;;;4.50;;
75272;SDS011;63869;52.344;16.928;2023-04-19T06:19:06;12.65;;;4.28;;
75272;SDS011;63869;52.344;16.928;2023-04-19T06:21:34;9.27;;;4.13;;
75272;SDS011;63869;52.344;16.928;2023-04-19T06:23:59;12.77;;;4.68;;
75272;SDS011;63869;52.344;16.928;2023-04-19T06:26:25;11.38;;;4.25;;
75272;SDS011;63869;52.344;16.928;2023-04-19T06:28:50;11.10;;;4.90;;
75272;SDS011;63869;52.344;16.928;2023-04-19T06:31:15;10.77;;;4.25;;
75272;SDS011;63869;52.344;16.928;2023-04-19T06:33:41;14.18;;;4.75;;
75272;SDS011;63869;52.344;16.928;2023-04-19T06:36:08;11.20;;;4.80;;
75272;SDS011;63869;52.344;16.928;2023-04-19T06:38:34;12.13;;;4.82;;
75272;SDS011;63869;52.344;16.928;2023-04-19T06:40:59;9.32;;;3.80;;
75272;SDS011;63869;52.344;16.928;2023-04-19T06:43:25;11.52;;;4.43;;
75272;SDS011;63869;52.344;16.928;2023-04-19T06:46:00;9.35;;;3.83;;
75272;SDS011;63869;52.344;16.928;2023-04-19T06:48:26;8.73;;;3.90;;
75272;SDS011;63869;52.344;16.928;2023-04-19T06:50:52;8.88;;;4.45;;
75272;SDS011;63869;52.344;16.928;2023-04-19T06:53:18;11.60;;;4.95;;
75272;SDS011;63869;52.344;16.928;2023-04-19T06:55:43;8.77;;;4.45;;
75272;SDS011;63869;52.344;16.928;2023-04-19T06:58:09;9.40;;;4.22;;
75272;SDS011;63869;52.344;16.928;2023-04-19T07:00:35;10.90;;;4.78;;
75272;SDS011;63869;52.344;16.928;2023-04-19T07:03:00;8.90;;;4.50;;
75272;SDS011;63869;52.344;16.928;2023-04-19T07:05:26;9.30;;;4.13;;
75272;SDS011;63869;52.344;16.928;2023-04-19T07:07:52;9.48;;;5.00;;
75272;SDS011;63869;52.344;16.928;2023-04-19T07:10:17;11.05;;;4.53;;
75272;SDS011;63869;52.344;16.928;2023-04-19T07:12:42;13.50;;;5.45;;
75272;SDS011;63869;52.344;16.928;2023-04-19T07:15:08;14.70;;;5.85;;
75272;SDS011;63869;52.344;16.928;2023-04-19T07:17:34;10.90;;;4.70;;
75272;SDS011;63869;52.344;16.928;2023-04-19T07:20:00;13.13;;;5.63;;
75272;SDS011;63869;52.344;16.928;2023-04-19T07:22:26;15.05;;;5.40;;
75272;SDS011;63869;52.344;16.928;2023-04-19T07:24:52;12.82;;;4.70;;
75272;SDS011;63869;52.344;16.928;2023-04-19T07:27:18;9.80;;;4.93;;
75272;SDS011;63869;52.344;16.928;2023-04-19T07:29:43;8.63;;;4.78;;
75272;SDS011;63869;52.344;16.928;2023-04-19T07:32:08;9.02;;;4.93;;
75272;SDS011;63869;52.344;16.928;2023-04-19T07:34:35;9.30;;;5.00;;
75272;SDS011;63869;52.344;16.928;2023-04-19T07:37:01;14.70;;;5.10;;
75272;SDS011;63869;52.344;16.928;2023-04-19T07:39:26;11.63;;;5.35;;
75272;SDS011;63869;52.344;16.928;2023-04-19T07:41:52;10.93;;;5.70;;
75272;SDS011;63869;52.344;16.928;2023-04-19T07:44:17;10.82;;;4.93;;
75272;SDS011;63869;52.344;16.928;2023-04-19T07:46:43;10.65;;;5.10;;
75272;SDS011;63869;52.344;16.928;2023-04-19T07:49:09;9.50;;;4.50;;
75272;SDS011;63869;52.344;16.928;2023-04-19T07:51:34;8.93;;;4.53;;
75272;SDS011;63869;52.344;16.928;2023-04-19T07:53:59;7.90;;;4.30;;
75272;SDS011;63869;52.344;16.928;2023-04-19T07:56:25;8.05;;;4.63;;
75272;SDS011;63869;52.344;16.928;2023-04-19T07:58:51;9.80;;;4.78;;
75272;SDS011;63869;52.344;16.928;2023-04-19T08:01:18;9.52;;;5.03;;
75272;SDS011;63869;52.344;16.928;2023-04-19T08:03:43;12.05;;;5.38;;
75272;SDS011;63869;52.344;16.928;2023-04-19T08:06:08;8.85;;;4.78;;
75272;SDS011;63869;52.344;16.928;2023-04-19T08:08:34;10.15;;;4.90;;
75272;SDS011;63869;52.344;16.928;2023-04-19T08:11:00;11.63;;;5.47;;
75272;SDS011;63869;52.344;16.928;2023-04-19T08:13:38;12.15;;;5.78;;
75272;SDS011;63869;52.344;16.928;2023-04-19T08:16:04;9.80;;;5.65;;
75272;SDS011;63869;52.344;16.928;2023-04-19T08:18:33;12.20;;;5.07;;
75272;SDS011;63869;52.344;16.928;2023-04-19T08:20:58;20.95;;;5.90;;
75272;SDS011;63869;52.344;16.928;2023-04-19T08:23:25;12.88;;;5.00;;
75272;SDS011;63869;52.344;16.928;2023-04-19T08:25:50;10.40;;;5.05;;
75272;SDS011;63869;52.344;16.928;2023-04-19T08:28:16;11.15;;;5.57;;
75272;SDS011;63869;52.344;16.928;2023-04-19T08:30:42;13.00;;;5.28;;
75272;SDS011;63869;52.344;16.928;2023-04-19T08:33:07;12.82;;;5.65;;
75272;SDS011;63869;52.344;16.928;2023-04-19T08:35:33;16.38;;;5.38;;
75272;SDS011;63869;52.344;16.928;2023-04-19T08:38:00;13.13;;;5.55;;
75272;SDS011;63869;52.344;16.928;2023-04-19T08:40:25;12.70;;;5.57;;
75272;SDS011;63869;52.344;16.928;2023-04-19T08:42:50;10.95;;;5.45;;
75272;SDS011;63869;52.344;16.928;2023-04-19T08:45:16;11.63;;;5.53;;
75272;SDS011;63869;52.344;16.928;2023-04-19T08:47:43;12.30;;;5.75;;
75272;SDS011;63869;52.344;16.928;2023-04-19T08:50:09;10.88;;;5.68;;
75272;SDS011;63869;52.344;16.928;2023-04-19T08:52:36;18.23;;;6.72;;
75272;SDS011;63869;52.344;16.928;2023-04-19T08:55:05;14.90;;;6.35;;
75272;SDS011;63869;52.344;16.928;2023-04-19T08:57:33;13.25;;;6.65;;
75272;SDS011;63869;52.344;16.928;2023-04-19T08:59:59;20.10;;;6.50;;
75272;SDS011;63869;52.344;16.928;2023-04-19T09:02:26;11.25;;;5.63;;
75272;SDS011;63869;52.344;16.928;2023-04-19T09:04:51;13.70;;;6.30;;
75272;SDS011;63869;52.344;16.928;2023-04-19T09:07:26;18.33;;;7.00;;
75272;SDS011;63869;52.344;16.928;2023-04-19T09:12:38;11.23;;;5.43;;
75272;SDS011;63869;52.344;16.928;2023-04-19T09:15:04;20.42;;;6.35;;
75272;SDS011;63869;52.344;16.928;2023-04-19T09:17:33;18.13;;;6.32;;
75272;SDS011;63869;52.344;16.928;2023-04-19T09:19:59;18.50;;;7.57;;
75272;SDS011;63869;52.344;16.928;2023-04-19T09:22:24;21.50;;;7.47;;
75272;SDS011;63869;52.344;16.928;2023-04-19T09:24:50;18.33;;;7.13;;
75272;SDS011;63869;52.344;16.928;2023-04-19T09:27:21;20.80;;;7.75;;
75272;SDS011;63869;52.344;16.928;2023-04-19T09:29:55;18.23;;;8.85;;
75272;SDS011;63869;52.344;16.928;2023-04-19T09:32:21;20.67;;;9.18;;
75272;SDS011;63869;52.344;16.928;2023-04-19T09:34:51;20.52;;;8.13;;
75272;SDS011;63869;52.344;16.928;2023-04-19T09:37:17;13.85;;;7.13;;
75272;SDS011;63869;52.344;16.928;2023-04-19T09:39:44;18.02;;;7.90;;
75272;SDS011;63869;52.344;16.928;2023-04-19T09:42:09;18.42;;;7.28;;
75272;SDS011;63869;52.344;16.928;2023-04-19T09:44:34;25.20;;;10.55;;
75272;SDS011;63869;52.344;16.928;2023-04-19T09:47:01;24.15;;;11.07;;
75272;SDS011;63869;52.344;16.928;2023-04-19T09:49:26;27.58;;;9.93;;
75272;SDS011;63869;52.344;16.928;2023-04-19T09:51:52;28.05;;;10.55;;
75272;SDS011;63869;52.344;16.928;2023-04-19T09:54:21;21.63;;;8.50;;
75272;SDS011;63869;52.344;16.928;2023-04-19T09:56:48;24.77;;;8.45;;
75272;SDS011;63869;52.344;16.928;2023-04-19T09:59:14;21.40;;;8.35;;
75272;SDS011;63869;52.344;16.928;2023-04-19T10:01:44;24.80;;;8.35;;
75272;SDS011;63869;52.344;16.928;2023-04-19T10:06:52;15.10;;;7.78;;
75272;SDS011;63869;52.344;16.928;2023-04-19T10:09:19;26.20;;;8.57;;
75272;SDS011;63869;52.344;16.928;2023-04-19T10:11:48;22.50;;;8.68;;
75272;SDS011;63869;52.344;16.928;2023-04-19T10:14:15;22.20;;;8.38;;
75272;SDS011;63869;52.344;16.928;2023-04-19T10:16:43;21.20;;;8.45;;
75272;SDS011;63869;52.344;16.928;2023-04-19T10:19:10;21.17;;;8.55;;
75272;SDS011;63869;52.344;16.928;2023-04-19T10:21:38;18.50;;;9.13;;
75272;SDS011;63869;52.344;16.928;2023-04-19T10:24:05;22.63;;;9.23;;
75272;SDS011;63869;52.344;16.928;2023-04-19T10:27:04;19.15;;;9.40;;
75272;SDS011;63869;52.344;16.928;2023-04-19T10:30:09;18.42;;;8.48;;
75272;SDS011;63869;52.344;16.928;2023-04-19T10:32:41;23.27;;;9.85;;
75272;SDS011;63869;52.344;16.928;2023-04-19T10:35:09;21.70;;;9.93;;
75272;SDS011;63869;52.344;16.928;2023-04-19T10:37:43;24.92;;;10.32;;
75272;SDS011;63869;52.344;16.928;2023-04-19T10:43:23;22.33;;;9.63;;
75272;SDS011;63869;52.344;16.928;2023-04-19T10:45:54;26.15;;;9.88;;
75272;SDS011;63869;52.344;16.928;2023-04-19T10:51:01;21.60;;;9.90;;
75272;SDS011;63869;52.344;16.928;2023-04-19T10:53:48;25.50;;;11.13;;
75272;SDS011;63869;52.344;16.928;2023-04-19T11:01:45;25.67;;;11.90;;
75272;SDS011;63869;52.344;16.928;2023-04-19T11:04:13;27.08;;;11.25;;
75272;SDS011;63869;52.344;16.928;2023-04-19T11:11:48;21.55;;;10.38;;
75272;SDS011;63869;52.344;16.928;2023-04-19T11:14:13;22.80;;;10.15;;
75272;SDS011;63869;52.344;16.928;2023-04-19T11:16:40;27.10;;;9.73;;
75272;SDS011;63869;52.344;16.928;2023-04-19T11:19:05;25.90;;;11.32;;
75272;SDS011;63869;52.344;16.928;2023-04-19T11:21:31;27.92;;;11.57;;
75272;SDS011;63869;52.344;16.928;2023-04-19T11:24:09;28.38;;;11.68;;
75272;SDS011;63869;52.344;16.928;2023-04-19T11:26:35;26.90;;;12.43;;
75272;SDS011;63869;52.344;16.928;2023-04-19T11:29:01;28.38;;;12.25;;
75272;SDS011;63869;52.344;16.928;2023-04-19T11:31:26;31.80;;;12.35;;
75272;SDS011;63869;52.344;16.928;2023-04-19T11:33:52;31.00;;;12.32;;
75272;SDS011;63869;52.344;16.928;2023-04-19T11:36:18;26.52;;;11.20;;
75272;SDS011;63869;52.344;16.928;2023-04-19T11:38:46;26.45;;;11.60;;
75272;SDS011;63869;52.344;16.928;2023-04-19T11:41:12;29.77;;;11.65;;
75272;SDS011;63869;52.344;16.928;2023-04-19T11:43:38;30.40;;;11.48;;
75272;SDS011;63869;52.344;16.928;2023-04-19T11:46:07;26.92;;;11.70;;
75272;SDS011;63869;52.344;16.928;2023-04-19T11:48:33;25.55;;;11.35;;
75272;SDS011;63869;52.344;16.928;2023-04-19T11:50:59;25.08;;;10.52;;
75272;SDS011;63869;52.344;16.928;2023-04-19T11:53:25;32.40;;;11.73;;
75272;SDS011;63869;52.344;16.928;2023-04-19T11:55:52;24.73;;;11.63;;
75272;SDS011;63869;52.344;16.928;2023-04-19T12:00:54;26.67;;;10.77;;
75272;SDS011;63869;52.344;16.928;2023-04-19T12:03:22;28.80;;;12.23;;
75272;SDS011;63869;52.344;16.928;2023-04-19T12:05:54;34.33;;;13.00;;
75272;SDS011;63869;52.344;16.928;2023-04-19T12:10:57;29.42;;;12.52;;
75272;SDS011;63869;52.344;16.928;2023-04-19T12:13:26;31.40;;;12.13;;
75272;SDS011;63869;52.344;16.928;2023-04-19T12:15:52;28.35;;;11.65;;
75272;SDS011;63869;52.344;16.928;2023-04-19T12:18:17;30.70;;;12.95;;
75272;SDS011;63869;52.344;16.928;2023-04-19T12:20:44;29.15;;;12.73;;
75272;SDS011;63869;52.344;16.928;2023-04-19T12:23:12;26.08;;;12.38;;
75272;SDS011;63869;52.344;16.928;2023-04-19T12:25:43;32.13;;;11.63;;
75272;SDS011;63869;52.344;16.928;2023-04-19T12:28:10;26.63;;;11.82;;
75272;SDS011;63869;52.344;16.928;2023-04-19T12:30:36;31.25;;;12.43;;
75272;SDS011;63869;52.344;16.928;2023-04-19T12:33:01;32.80;;;12.35;;
75272;SDS011;63869;52.344;16.928;2023-04-19T12:35:27;30.35;;;12.88;;
75272;SDS011;63869;52.344;16.928;2023-04-19T12:37:53;33.38;;;13.32;;
75272;SDS011;63869;52.344;16.928;2023-04-19T12:40:19;29.13;;;13.52;;
75272;SDS011;63869;52.344;16.928;2023-04-19T12:42:46;29.52;;;12.90;;
75272;SDS011;63869;52.344;16.928;2023-04-19T12:45:11;31.75;;;13.63;;
75272;SDS011;63869;52.344;16.928;2023-04-19T12:47:37;28.88;;;13.50;;
75272;SDS011;63869;52.344;16.928;2023-04-19T12:50:05;31.20;;;14.00;;
75272;SDS011;63869;52.344;16.928;2023-04-19T12:52:31;39.17;;;13.43;;
75272;SDS011;63869;52.344;16.928;2023-04-19T12:54:57;32.58;;;15.07;;
75272;SDS011;63869;52.344;16.928;2023-04-19T12:57:24;31.63;;;13.18;;
75272;SDS011;63869;52.344;16.928;2023-04-19T12:59:49;27.38;;;12.70;;
75272;SDS011;63869;52.344;16.928;2023-04-19T13:02:14;26.52;;;12.50;;
75272;SDS011;63869;52.344;16.928;2023-04-19T13:04:40;28.10;;;12.43;;
75272;SDS011;63869;52.344;16.928;2023-04-19T13:07:05;32.70;;;12.10;;
75272;SDS011;63869;52.344;16.928;2023-04-19T13:09:31;25.58;;;11.77;;
75272;SDS011;63869;52.344;16.928;2023-04-19T13:11:56;27.60;;;11.45;;
75272;SDS011;63869;52.344;16.928;2023-04-19T13:14:25;25.80;;;12.10;;
75272;SDS011;63869;52.344;16.928;2023-04-19T13:16:51;30.77;;;11.73;;
75272;SDS011;63869;52.344;16.928;2023-04-19T13:19:17;34.13;;;12.38;;
75272;SDS011;63869;52.344;16.928;2023-04-19T13:21:42;32.70;;;11.98;;
75272;SDS011;63869;52.344;16.928;2023-04-19T13:24:08;23.58;;;11.85;;
75272;SDS011;63869;52.344;16.928;2023-04-19T13:26:33;26.90;;;11.00;;
75272;SDS011;63869;52.344;16.928;2023-04-19T13:28:59;25.55;;;11.57;;
75272;SDS011;63869;52.344;16.928;2023-04-19T13:31:26;26.00;;;12.07;;
75272;SDS011;63869;52.344;16.928;2023-04-19T13:33:51;22.92;;;11.05;;
75272;SDS011;63869;52.344;16.928;2023-04-19T13:36:17;24.45;;;12.13;;
75272;SDS011;63869;52.344;16.928;2023-04-19T13:38:43;26.35;;;11.63;;
75272;SDS011;63869;52.344;16.928;2023-04-19T13:41:09;24.85;;;11.07;;
75272;SDS011;63869;52.344;16.928;2023-04-19T13:43:35;26.27;;;11.13;;
75272;SDS011;63869;52.344;16.928;2023-04-19T13:46:01;25.20;;;12.38;;
75272;SDS011;63869;52.344;16.928;2023-04-19T13:48:26;23.63;;;12.20;;
75272;SDS011;63869;52.344;16.928;2023-04-19T13:50:53;28.27;;;12.88;;
75272;SDS011;63869;52.344;16.928;2023-04-19T13:53:19;28.08;;;12.55;;
75272;SDS011;63869;52.344;16.928;2023-04-19T13:55:44;24.98;;;11.75;;
75272;SDS011;63869;52.344;16.928;2023-04-19T13:58:10;25.80;;;12.93;;
75272;SDS011;63869;52.344;16.928;2023-04-19T14:00:35;26.75;;;12.88;;
75272;SDS011;63869;52.344;16.928;2023-04-19T14:03:01;27.63;;;13.30;;
75272;SDS011;63869;52.344;16.928;2023-04-19T14:05:29;31.35;;;13.75;;
75272;SDS011;63869;52.344;16.928;2023-04-19T14:07:55;30.02;;;13.57;;
75272;SDS011;63869;52.344;16.928;2023-04-19T14:10:20;37.65;;;14.25;;
75272;SDS011;63869;52.344;16.928;2023-04-19T14:12:46;28.45;;;13.68;;
75272;SDS011;63869;52.344;16.928;2023-04-19T14:15:11;30.67;;;13.50;;
75272;SDS011;63869;52.344;16.928;2023-04-19T14:17:38;37.47;;;17.50;;
75272;SDS011;63869;52.344;16.928;2023-04-19T14:20:03;36.40;;;15.50;;
75272;SDS011;63869;52.344;16.928;2023-04-19T14:22:30;30.67;;;14.75;;
75272;SDS011;63869;52.344;16.928;2023-04-19T14:24:56;82.18;;;38.83;;
75272;SDS011;63869;52.344;16.928;2023-04-19T14:27:21;67.03;;;35.22;;
75272;SDS011;63869;52.344;16.928;2023-04-19T14:29:46;40.10;;;20.20;;
75272;SDS011;63869;52.344;16.928;2023-04-19T14:32:13;39.90;;;18.50;;
75272;SDS011;63869;52.344;16.928;2023-04-19T14:34:39;44.08;;;15.90;;
75272;SDS011;63869;52.344;16.928;2023-04-19T14:37:06;40.35;;;15.73;;
75272;SDS011;63869;52.344;16.928;2023-04-19T14:39:33;33.60;;;14.55;;
75272;SDS011;63869;52.344;16.928;2023-04-19T14:41:58;32.03;;;14.50;;
75272;SDS011;63869;52.344;16.928;2023-04-19T14:44:24;24.92;;;12.35;;
75272;SDS011;63869;52.344;16.928;2023-04-19T14:46:49;28.55;;;13.82;;